Time;durP1;ratioP1;P1;durP2;ratioP2;P2;SDS_P1;SDS_P2;PMS_P1;PMS_P2;Temp;Humidity;BMP_temperature;BMP_pressure;BME280_temperature;BME280_humidity;BME280_pressure;Samples;Min_cycle;Max_cycle;Signal;HPM_P1;HPM_P2
2021/07/11 00:01:06;;;;;;;;;;;;;;;21.26;58.20;101412.72;2211108;39;114774;-56
2021/07/11 00:02:38;;;;;;;;;;;;;;;21.24;58.35;101418.69;2212021;39;114896;-55
2021/07/11 00:04:09;;;;;;;;;;;;;;;21.31;58.30;101418.28;2216592;39;114864;-55
2021/07/11 00:05:41;;;;;;;;;;;;;;;21.26;58.08;101418.34;2211781;39;115212;-56
2021/07/11 00:07:14;;;;;;;;;;;;;;;21.28;58.17;101421.72;2209946;39;115903;-56
2021/07/11 00:08:46;;;;;;;;;;;;;;;21.28;58.18;101424.53;2210484;39;114130;-55
2021/07/11 00:10:19;;;;;;;;;;;;;;;21.26;58.29;101422.00;2211217;39;113854;-55
2021/07/11 00:11:50;;;;;;;;;;;;;;;21.27;58.36;101415.25;2211468;39;115068;-56
2021/07/11 00:13:25;;;;;;;;;;;;;;;21.28;58.26;101416.94;2214250;39;113927;-56
2021/07/11 00:14:57;;;;;;;;;;;;;;;21.25;58.42;101411.09;2211762;39;115985;-56
2021/07/11 00:16:32;;;;;;;;;;;;;;;21.26;58.55;101415.53;2211197;39;115839;-55
2021/07/11 00:18:04;;;;;;;;;;;;;;;21.26;58.81;101407.09;2211442;39;115560;-56
2021/07/11 00:19:37;;;;;;;;;;;;;;;21.28;58.89;101413.28;2206905;39;115948;-55
2021/07/11 00:21:09;;;;;;;;;;;;;;;21.28;58.73;101413.28;2211650;39;114616;-56
2021/07/11 00:22:42;;;;;;;;;;;;;;;21.24;58.54;101417.84;2205204;39;115350;-56
2021/07/11 00:24:14;;;;;;;;;;;;;;;21.24;59.00;101415.03;2211635;39;115850;-56
2021/07/11 00:25:46;;;;;;;;;;;;;;;21.26;58.64;101418.34;2211812;39;115492;-56
2021/07/11 00:27:17;;;;;;;;;;;;;;;21.26;58.90;101416.38;2210531;39;116002;-56
2021/07/11 00:28:52;;;;;;;;;;;;;;;21.28;58.70;101422.56;2210468;39;114590;-55
2021/07/11 00:30:25;;;;;;;;;;;;;;;21.27;58.94;101412.44;2210610;39;114529;-56
2021/07/11 00:31:57;;;;;;;;;;;;;;;21.28;58.97;101416.09;2210903;39;114789;-56
2021/07/11 00:33:29;;;;;;;;;;;;;;;21.24;58.86;101415.03;2211906;39;116838;-56
2021/07/11 00:35:02;;;;;;;;;;;;;;;21.23;59.16;101421.78;2210814;39;114564;-56
2021/07/11 00:36:33;;;;;;;;;;;;;;;21.24;58.91;101417.84;2213959;39;115740;-56
2021/07/11 00:38:08;;;;;;;;;;;;;;;21.26;58.85;101424.81;2214200;39;113919;-56
2021/07/11 00:39:40;;;;;;;;;;;;;;;21.24;58.95;101417.84;2208837;39;113645;-56
2021/07/11 00:41:12;;;;;;;;;;;;;;;21.25;59.09;101419.50;2204315;39;113667;-56
2021/07/11 00:42:44;;;;;;;;;;;;;;;21.24;59.20;101412.22;2215757;39;113949;-56
2021/07/11 00:44:16;;;;;;;;;;;;;;;21.24;58.98;101415.88;2209001;39;113743;-56
2021/07/11 00:45:47;;;;;;;;;;;;;;;21.24;59.16;101418.69;2210279;39;113645;-55
2021/07/11 00:47:19;;;;;;;;;;;;;;;21.23;58.98;101425.44;2206609;39;113697;-56
2021/07/11 00:48:51;;;;;;;;;;;;;;;21.25;59.17;101425.13;2207952;39;113778;-56
2021/07/11 00:50:23;;;;;;;;;;;;;;;21.23;58.93;101413.34;2211343;39;113670;-56
2021/07/11 00:51:54;;;;;;;;;;;;;;;21.25;59.39;101422.31;2204318;39;113874;-56
2021/07/11 00:53:26;;;;;;;;;;;;;;;21.22;59.26;101425.72;2204709;39;113612;-56
2021/07/11 00:54:58;;;;;;;;;;;;;;;21.24;58.98;101423.47;2210886;39;114160;-56
2021/07/11 00:56:30;;;;;;;;;;;;;;;21.23;59.10;101422.63;2209115;39;113784;-56
2021/07/11 00:58:02;;;;;;;;;;;;;;;21.26;59.11;101427.63;2211462;39;113874;-56
2021/07/11 00:59:36;;;;;;;;;;;;;;;21.27;59.11;101423.69;2210576;39;114815;-56
2021/07/11 01:01:08;;;;;;;;;;;;;;;21.26;59.08;101423.97;2210032;39;115552;-56
2021/07/11 01:02:43;;;;;;;;;;;;;;;21.30;59.18;101416.63;2208923;39;115315;-56
2021/07/11 01:04:19;;;;;;;;;;;;;;;21.25;59.09;101413.91;2208695;39;115543;-56
2021/07/11 01:05:52;;;;;;;;;;;;;;;21.28;59.26;101424.53;2207438;39;113906;-56
2021/07/11 01:07:26;;;;;;;;;;;;;;;21.26;59.18;101416.38;2207958;39;114829;-55
2021/07/11 01:09:01;;;;;;;;;;;;;;;21.26;59.19;101412.72;2214789;39;115252;-56
2021/07/11 01:10:42;;;;;;;;;;;;;;;21.26;59.15;101413.56;2210575;39;114319;-55
2021/07/11 01:12:20;;;;;;;;;;;;;;;21.29;59.62;101409.34;2210240;39;114936;-56
2021/07/11 01:13:55;;;;;;;;;;;;;;;21.27;59.20;101414.41;2206335;39;114845;-56
2021/07/11 01:15:27;;;;;;;;;;;;;;;21.27;59.23;101417.22;2205865;39;114826;-55
2021/07/11 01:17:02;;;;;;;;;;;;;;;21.27;59.21;101411.59;2210977;39;115372;-55
2021/07/11 01:18:39;;;;;;;;;;;;;;;21.26;59.51;101407.94;2209819;39;114215;-55
2021/07/11 01:20:21;;;;;;;;;;;;;;;21.29;59.17;101398.09;2211901;39;114843;-56
2021/07/11 01:21:53;;;;;;;;;;;;;;;21.28;59.72;101402.88;2209298;39;115877;-56
2021/07/11 01:23:35;;;;;;;;;;;;;;;21.29;59.51;101395.28;2208652;39;115478;-56
2021/07/11 01:25:08;;;;;;;;;;;;;;;21.28;59.58;101391.63;2207868;39;116420;-56
2021/07/11 01:26:39;;;;;;;;;;;;;;;21.27;59.56;101397.53;2205877;39;116792;-55
2021/07/11 01:28:13;;;;;;;;;;;;;;;21.29;59.41;101398.09;2209450;39;116115;-56
2021/07/11 01:29:45;;;;;;;;;;;;;;;21.26;59.75;101402.31;2209568;39;115594;-56
2021/07/11 01:31:18;;;;;;;;;;;;;;;21.29;59.61;101395.28;2209952;39;114715;-56
2021/07/11 01:32:50;;;;;;;;;;;;;;;21.27;59.33;101400.34;2208648;39;115602;-56
2021/07/11 01:34:23;;;;;;;;;;;;;;;21.29;59.15;101400.91;2211462;39;115947;-56
2021/07/11 01:35:55;;;;;;;;;;;;;;;21.27;59.29;101394.72;2212104;39;115921;-56
2021/07/11 01:37:28;;;;;;;;;;;;;;;21.27;59.37;101404.00;2211530;39;115472;-56
2021/07/11 01:39:00;;;;;;;;;;;;;;;21.27;59.10;101397.53;2209572;39;114925;-56
2021/07/11 01:40:32;;;;;;;;;;;;;;;21.28;59.62;101399.22;2209025;39;115276;-55
2021/07/11 01:42:04;;;;;;;;;;;;;;;21.27;59.16;101395.56;2213211;39;116883;-56
2021/07/11 01:43:37;;;;;;;;;;;;;;;21.27;59.34;101397.53;2210936;39;114366;-56
2021/07/11 01:45:09;;;;;;;;;;;;;;;21.28;59.08;101399.22;2205784;39;113708;-56
2021/07/11 01:46:41;;;;;;;;;;;;;;;21.30;59.22;101400.59;2210255;39;113767;-56
2021/07/11 01:48:17;;;;;;;;;;;;;;;21.27;59.21;101405.97;2209714;39;113803;-56
2021/07/11 01:49:49;;;;;;;;;;;;;;;21.29;59.19;101409.34;2208957;39;113645;-57
2021/07/11 01:51:24;;;;;;;;;;;;;;;21.27;59.36;101411.59;2210199;39;113838;-56
2021/07/11 01:52:56;;;;;;;;;;;;;;;21.24;59.29;101401.81;2211691;39;113706;-56
2021/07/11 01:54:28;;;;;;;;;;;;;;;21.28;59.48;101407.66;2211763;39;113586;-56
2021/07/11 01:56:01;;;;;;;;;;;;;;;21.28;59.32;101402.88;2208062;39;113814;-56
2021/07/11 01:57:34;;;;;;;;;;;;;;;21.29;59.42;101400.91;2211150;39;113966;-56
2021/07/11 01:59:06;;;;;;;;;;;;;;;21.26;59.45;101399.50;2206254;39;114668;-56
2021/07/11 02:00:37;;;;;;;;;;;;;;;21.24;59.29;101392.53;2208989;39;113800;-56
2021/07/11 02:02:09;;;;;;;;;;;;;;;21.25;59.37;101397.03;2210024;39;114071;-56
2021/07/11 02:03:41;;;;;;;;;;;;;;;21.24;59.52;101393.38;2210825;39;114709;-57
2021/07/11 02:05:14;;;;;;;;;;;;;;;21.25;59.46;101397.03;2206840;39;113811;-56
2021/07/11 02:06:45;;;;;;;;;;;;;;;21.24;59.10;101396.19;2209031;39;115271;-56
2021/07/11 02:08:17;;;;;;;;;;;;;;;21.22;59.60;101398.44;2211346;39;114921;-56
2021/07/11 02:09:49;;;;;;;;;;;;;;;21.24;59.56;101400.97;2211775;39;114839;-56
2021/07/11 02:11:22;;;;;;;;;;;;;;;21.23;59.49;101396.47;2207985;39;113965;-56
2021/07/11 02:12:56;;;;;;;;;;;;;;;21.23;59.34;101396.47;2211224;39;114220;-56
2021/07/11 02:14:30;;;;;;;;;;;;;;;21.21;59.55;101401.59;2211557;39;114903;-56
2021/07/11 02:16:05;;;;;;;;;;;;;;;21.22;59.56;101406.03;2211564;39;115089;-56
2021/07/11 02:17:39;;;;;;;;;;;;;;;21.20;59.42;101400.75;2211685;39;114895;-56
2021/07/11 02:19:11;;;;;;;;;;;;;;;21.22;59.54;101406.88;2211120;39;114088;-56
2021/07/11 02:20:47;;;;;;;;;;;;;;;21.22;59.33;101412.50;2210665;39;115195;-56
2021/07/11 02:22:19;;;;;;;;;;;;;;;21.24;59.28;101404.63;2211209;39;114762;-56
2021/07/11 02:23:52;;;;;;;;;;;;;;;21.23;59.31;101400.13;2209146;39;115082;-57
2021/07/11 02:25:24;;;;;;;;;;;;;;;21.26;59.28;101407.94;2210609;39;115003;-56
2021/07/11 02:26:56;;;;;;;;;;;;;;;21.23;59.24;101399.28;2214180;39;115074;-56
2021/07/11 02:28:29;;;;;;;;;;;;;;;21.24;59.61;101400.97;2210682;39;115692;-56
2021/07/11 02:30:06;;;;;;;;;;;;;;;21.27;59.56;101401.19;2210997;39;115575;-56
2021/07/11 02:31:41;;;;;;;;;;;;;;;21.24;59.36;101403.78;2210644;39;116294;-56
2021/07/11 02:33:13;;;;;;;;;;;;;;;21.23;59.26;101405.75;2210607;39;116454;-56
2021/07/11 02:34:45;;;;;;;;;;;;;;;21.24;59.37;101407.44;2210851;39;115923;-56
2021/07/11 02:36:19;;;;;;;;;;;;;;;21.24;59.52;101412.22;2210193;39;115573;-57
2021/07/11 02:37:53;;;;;;;;;;;;;;;21.26;59.20;101413.56;2208160;39;114596;-56
2021/07/11 02:39:25;;;;;;;;;;;;;;;21.27;59.50;101411.59;2211279;39;115947;-56
2021/07/11 02:40:57;;;;;;;;;;;;;;;21.26;59.39;101413.56;2216713;39;114721;-56
2021/07/11 02:42:29;;;;;;;;;;;;;;;21.25;59.25;101405.47;2210219;39;115476;-56
2021/07/11 02:44:02;;;;;;;;;;;;;;;21.24;59.06;101409.41;2210146;39;115478;-56
2021/07/11 02:45:35;;;;;;;;;;;;;;;21.26;59.45;101415.53;2206176;39;115698;-56
2021/07/11 02:47:09;;;;;;;;;;;;;;;21.23;59.31;101414.19;2208395;39;115567;-56
2021/07/11 02:48:41;;;;;;;;;;;;;;;21.24;59.54;101413.06;2213855;39;115900;-56
2021/07/11 02:50:14;;;;;;;;;;;;;;;21.24;59.21;101401.81;2208709;39;113658;-55
2021/07/11 02:51:50;;;;;;;;;;;;;;;21.24;59.68;101406.59;2211086;39;113819;-56
2021/07/11 02:53:24;;;;;;;;;;;;;;;21.24;59.44;101390.56;2211212;39;113769;-56
2021/07/11 02:54:59;;;;;;;;;;;;;;;21.23;59.41;101393.66;2216694;39;114043;-56
2021/07/11 02:56:33;;;;;;;;;;;;;;;21.23;59.40;101386.09;2212384;39;113881;-57
2021/07/11 02:58:08;;;;;;;;;;;;;;;21.23;59.56;101388.88;2207590;39;114033;-55
2021/07/11 02:59:40;;;;;;;;;;;;;;;21.22;59.57;101387.22;2210129;39;113681;-56
2021/07/11 03:01:12;;;;;;;;;;;;;;;21.22;59.55;101384.41;2211294;39;113614;-56
2021/07/11 03:02:45;;;;;;;;;;;;;;;21.23;59.70;101385.25;2210926;39;113933;-56
2021/07/11 03:04:19;;;;;;;;;;;;;;;21.24;59.86;101384.94;2211359;39;113830;-56
2021/07/11 03:05:53;;;;;;;;;;;;;;;21.22;59.64;101383.56;2206493;39;114416;-56
2021/07/11 03:07:24;;;;;;;;;;;;;;;21.22;59.79;101389.19;2209852;39;113774;-55
2021/07/11 03:08:56;;;;;;;;;;;;;;;21.21;59.58;101385.53;2210351;39;114118;-56
2021/07/11 03:10:28;;;;;;;;;;;;;;;21.21;59.88;101384.72;2215452;39;114130;-56
2021/07/11 03:12:00;;;;;;;;;;;;;;;21.20;59.54;101381.06;2210236;39;117026;-55
2021/07/11 03:13:34;;;;;;;;;;;;;;;21.21;59.58;101379.09;2209590;39;114324;-55
2021/07/11 03:15:06;;;;;;;;;;;;;;;21.21;59.70;101377.09;2212854;39;114781;-55
2021/07/11 03:16:40;;;;;;;;;;;;;;;21.22;59.87;101375.13;2211867;39;114924;-56
2021/07/11 03:18:12;;;;;;;;;;;;;;;21.19;59.57;101372.94;2211586;39;115054;-56
2021/07/11 03:19:44;;;;;;;;;;;;;;;21.21;59.99;101376.28;2206245;39;114670;-56
2021/07/11 03:21:16;;;;;;;;;;;;;;;21.21;59.84;101379.09;2209976;39;115103;-55
2021/07/11 03:22:50;;;;;;;;;;;;;;;21.21;59.89;101374.28;2211076;39;115085;-55
2021/07/11 03:24:23;;;;;;;;;;;;;;;21.20;59.69;101372.66;2210625;39;115116;-56
2021/07/11 03:25:55;;;;;;;;;;;;;;;21.22;59.87;101375.97;2210290;39;114799;-56
2021/07/11 03:27:28;;;;;;;;;;;;;;;21.21;59.71;101371.47;2211901;39;114979;-56
2021/07/11 03:29:04;;;;;;;;;;;;;;;21.22;60.12;101369.50;2210829;39;115079;-56
2021/07/11 03:30:40;;;;;;;;;;;;;;;21.22;59.63;101372.31;2210041;39;114700;-56
2021/07/11 03:32:14;;;;;;;;;;;;;;;21.22;59.69;101361.91;2212219;39;114754;-56
2021/07/11 03:33:49;;;;;;;;;;;;;;;21.23;59.75;101360.78;2208500;39;115408;-56
2021/07/11 03:35:28;;;;;;;;;;;;;;;21.25;59.90;101363.31;2209142;39;115613;-55
2021/07/11 03:37:04;;;;;;;;;;;;;;;21.23;59.67;101357.13;2203078;39;115455;-56
2021/07/11 03:38:40;;;;;;;;;;;;;;;21.23;59.71;101355.16;2209619;39;114533;-56
2021/07/11 03:40:15;;;;;;;;;;;;;;;21.20;59.63;101355.78;2210094;39;115345;-55
2021/07/11 03:41:48;;;;;;;;;;;;;;;21.20;59.57;101358.59;2210834;39;115920;-56
2021/07/11 03:43:22;;;;;;;;;;;;;;;21.22;59.64;101363.88;2211015;39;115754;-56
2021/07/11 03:44:55;;;;;;;;;;;;;;;21.22;59.85;101358.28;2213487;39;115940;-56
2021/07/11 03:46:29;;;;;;;;;;;;;;;21.22;59.83;101361.09;2211888;39;114721;-56
2021/07/11 03:48:05;;;;;;;;;;;;;;;21.22;59.98;101356.31;2211346;39;114597;-55
2021/07/11 03:49:39;;;;;;;;;;;;;;;21.21;60.13;101353.81;2211465;39;115416;-56
2021/07/11 03:51:11;;;;;;;;;;;;;;;21.23;60.01;101355.16;2206793;39;114862;-56
2021/07/11 03:52:47;;;;;;;;;;;;;;;21.21;59.69;101351.00;2211697;39;114802;-56
2021/07/11 03:54:19;;;;;;;;;;;;;;;21.24;60.09;101348.41;2211825;39;115477;-56
2021/07/11 03:55:52;;;;;;;;;;;;;;;21.23;59.78;101354.31;2214203;39;115344;-56
2021/07/11 03:57:25;;;;;;;;;;;;;;;21.23;59.66;101357.13;2211626;39;113949;-56
2021/07/11 03:58:58;;;;;;;;;;;;;;;21.20;59.95;101352.97;2211855;39;113578;-56
2021/07/11 04:00:30;;;;;;;;;;;;;;;21.21;59.61;101354.63;2211097;39;113690;-56
2021/07/11 04:02:05;;;;;;;;;;;;;;;21.22;59.97;101361.09;2211726;39;113757;-56
2021/07/11 04:03:40;;;;;;;;;;;;;;;21.21;59.80;101357.44;2212048;39;113751;-56
2021/07/11 04:05:13;;;;;;;;;;;;;;;21.21;59.92;101354.63;2211926;39;113596;-56
2021/07/11 04:06:46;;;;;;;;;;;;;;;21.21;59.58;101362.25;2210896;39;113968;-56
2021/07/11 04:08:19;;;;;;;;;;;;;;;21.22;59.91;101366.69;2216864;39;114882;-56
2021/07/11 04:09:53;;;;;;;;;;;;;;;21.24;59.46;101361.63;2213538;39;113829;-56
2021/07/11 04:11:25;;;;;;;;;;;;;;;21.21;59.50;101363.06;2211050;39;113737;-56
2021/07/11 04:12:58;;;;;;;;;;;;;;;21.21;59.71;101368.66;2208779;39;113906;-56
2021/07/11 04:14:30;;;;;;;;;;;;;;;21.21;59.46;101362.25;2209266;39;113681;-56
2021/07/11 04:16:03;;;;;;;;;;;;;;;21.23;59.71;101371.19;2210196;39;114113;-55
2021/07/11 04:17:36;;;;;;;;;;;;;;;21.21;59.88;101368.66;2219119;39;113856;-56
2021/07/11 04:19:09;;;;;;;;;;;;;;;21.19;59.48;101370.13;2210297;39;114740;-56
2021/07/11 04:20:41;;;;;;;;;;;;;;;21.17;59.85;101366.78;2211117;39;114074;-56
2021/07/11 04:22:14;;;;;;;;;;;;;;;21.19;59.75;101370.13;2210497;39;115213;-56
2021/07/11 04:23:48;;;;;;;;;;;;;;;21.17;59.35;101369.56;2211363;39;113953;-56
2021/07/11 04:25:20;;;;;;;;;;;;;;;21.20;59.78;101372.66;2210723;39;114600;-56
2021/07/11 04:26:53;;;;;;;;;;;;;;;21.17;59.43;101373.22;2211299;39;114706;-56
2021/07/11 04:28:28;;;;;;;;;;;;;;;21.17;59.53;101375.19;2211229;39;115394;-56
2021/07/11 04:30:00;;;;;;;;;;;;;;;21.16;59.78;101374.41;2207896;39;115297;-56
2021/07/11 04:31:31;;;;;;;;;;;;;;;21.16;59.50;101377.19;2211199;39;114580;-56
2021/07/11 04:33:04;;;;;;;;;;;;;;;21.18;59.36;101374.06;2215055;39;114639;-56
2021/07/11 04:34:36;;;;;;;;;;;;;;;21.18;59.41;101385.31;2210260;39;114928;-56
2021/07/11 04:36:08;;;;;;;;;;;;;;;21.17;59.36;101389.25;2211729;39;114815;-56
2021/07/11 04:37:39;;;;;;;;;;;;;;;21.18;59.58;101388.13;2211389;39;113936;-56
2021/07/11 04:39:11;;;;;;;;;;;;;;;21.17;59.64;101395.72;2215261;39;115706;-56
2021/07/11 04:40:43;;;;;;;;;;;;;;;21.18;59.37;101393.75;2207394;39;115992;-58
2021/07/11 04:42:15;;;;;;;;;;;;;;;21.16;59.50;101399.69;2210101;39;115470;-56
2021/07/11 04:43:48;;;;;;;;;;;;;;;21.16;59.54;101399.69;2211268;39;115467;-56
2021/07/11 04:45:20;;;;;;;;;;;;;;;21.18;59.60;101399.34;2211481;39;115680;-56
2021/07/11 04:46:52;;;;;;;;;;;;;;;21.16;59.47;101404.47;2210982;39;115608;-56
2021/07/11 04:48:24;;;;;;;;;;;;;;;21.16;59.68;101404.47;2207150;39;114846;-57
2021/07/11 04:49:55;;;;;;;;;;;;;;;21.15;59.54;101409.25;2208825;39;114880;-56
2021/07/11 04:51:27;;;;;;;;;;;;;;;21.16;59.62;101415.69;2211460;39;115506;-55
2021/07/11 04:52:59;;;;;;;;;;;;;;;21.15;59.61;101409.25;2211653;39;116262;-56
2021/07/11 04:54:31;;;;;;;;;;;;;;;21.15;59.58;101402.78;2211688;39;115994;-56
2021/07/11 04:56:03;;;;;;;;;;;;;;;21.15;59.81;101405.59;2217621;39;115668;-56
2021/07/11 04:57:35;;;;;;;;;;;;;;;21.15;59.52;101414.03;2213742;39;115434;-56
2021/07/11 04:59:07;;;;;;;;;;;;;;;21.17;59.47;101411.72;2204766;39;117281;-56
2021/07/11 05:00:39;;;;;;;;;;;;;;;21.15;59.78;101417.69;2207303;39;115717;-56
2021/07/11 05:02:10;;;;;;;;;;;;;;;21.15;59.45;101412.06;2210456;39;113581;-56
2021/07/11 05:03:42;;;;;;;;;;;;;;;21.15;59.64;101417.69;2210626;39;113764;-56
2021/07/11 05:05:14;;;;;;;;;;;;;;;21.16;59.59;101407.28;2211388;39;113701;-57
2021/07/11 05:06:46;;;;;;;;;;;;;;;21.14;59.60;101410.38;2211552;39;113833;-55
2021/07/11 05:08:17;;;;;;;;;;;;;;;21.13;59.65;101411.50;2211093;39;113697;-56
2021/07/11 05:09:49;;;;;;;;;;;;;;;21.13;59.58;101405.88;2211316;39;113705;-56
2021/07/11 05:11:21;;;;;;;;;;;;;;;21.13;59.41;101408.69;2211509;39;113765;-56
2021/07/11 05:12:52;;;;;;;;;;;;;;;21.12;59.73;101404.16;2211324;39;113751;-56
2021/07/11 05:14:24;;;;;;;;;;;;;;;21.13;59.25;101397.47;2204169;39;114022;-56
2021/07/11 05:15:56;;;;;;;;;;;;;;;21.13;59.59;101399.44;2209916;39;113932;-56
2021/07/11 05:17:28;;;;;;;;;;;;;;;21.11;59.66;101402.53;2210708;39;114280;-56
2021/07/11 05:19:02;;;;;;;;;;;;;;;21.11;59.74;101402.53;2211181;39;113830;-56
2021/07/11 05:20:34;;;;;;;;;;;;;;;21.12;59.32;101403.38;2211385;39;113779;-56
2021/07/11 05:22:05;;;;;;;;;;;;;;;21.11;59.57;101410.94;2210188;39;113914;-56
2021/07/11 05:23:37;;;;;;;;;;;;;;;21.11;59.71;101410.94;2214143;39;113611;-56
2021/07/11 05:25:09;;;;;;;;;;;;;;;21.11;59.67;101418.53;2208276;39;115069;-56
2021/07/11 05:26:41;;;;;;;;;;;;;;;21.10;59.50;101412.09;2211761;39;114570;-56
2021/07/11 05:28:13;;;;;;;;;;;;;;;21.10;59.72;101419.69;2211757;39;114928;-56
2021/07/11 05:29:45;;;;;;;;;;;;;;;21.11;59.81;101425.00;2211261;39;115209;-56
2021/07/11 05:31:17;;;;;;;;;;;;;;;21.09;59.67;101418.84;2211849;39;114466;-56
2021/07/11 05:32:48;;;;;;;;;;;;;;;21.11;59.40;101412.94;2211752;39;114300;-56
2021/07/11 05:34:20;;;;;;;;;;;;;;;21.09;59.80;101413.22;2209887;39;114837;-57
2021/07/11 05:35:52;;;;;;;;;;;;;;;21.11;59.50;101419.38;2210742;39;115347;-56
2021/07/11 05:37:23;;;;;;;;;;;;;;;21.08;59.52;101414.34;2210951;39;114824;-56
2021/07/11 05:38:55;;;;;;;;;;;;;;;21.11;59.66;101415.72;2211072;39;114859;-56
2021/07/11 05:40:27;;;;;;;;;;;;;;;21.10;59.49;101419.69;2210869;39;114860;-56
2021/07/11 05:41:58;;;;;;;;;;;;;;;21.09;59.60;101415.19;2211237;39;114525;-56
2021/07/11 05:43:30;;;;;;;;;;;;;;;21.08;59.84;101419.97;2211521;39;114961;-56
2021/07/11 05:45:02;;;;;;;;;;;;;;;21.11;59.78;101421.34;2210961;39;115463;-56
2021/07/11 05:46:34;;;;;;;;;;;;;;;21.09;59.44;101415.19;2210311;39;115828;-56
2021/07/11 05:48:06;;;;;;;;;;;;;;;21.08;59.77;101411.53;2211417;39;115594;-56
2021/07/11 05:49:38;;;;;;;;;;;;;;;21.09;59.69;101410.41;2211782;39;115547;-56
2021/07/11 05:51:10;;;;;;;;;;;;;;;21.07;59.86;101398.66;2210206;39;115672;-56
2021/07/11 05:52:42;;;;;;;;;;;;;;;21.07;59.65;101400.63;2205546;39;115822;-57
2021/07/11 05:54:14;;;;;;;;;;;;;;;21.06;59.92;101399.78;2215264;39;115837;-58
2021/07/11 05:55:45;;;;;;;;;;;;;;;21.09;59.77;101401.13;2212549;39;115596;-56
2021/07/11 05:57:18;;;;;;;;;;;;;;;21.07;59.63;101403.44;2211120;39;115481;-56
2021/07/11 05:58:52;;;;;;;;;;;;;;;21.08;59.83;101405.06;2210561;39;115984;-56
2021/07/11 06:00:24;;;;;;;;;;;;;;;21.08;59.81;101405.91;2210787;39;114607;-56
2021/07/11 06:01:56;;;;;;;;;;;;;;;21.09;59.82;101401.13;2211218;39;114635;-56
2021/07/11 06:03:28;;;;;;;;;;;;;;;21.08;59.87;101405.91;2211797;39;115498;-56
2021/07/11 06:05:00;;;;;;;;;;;;;;;21.08;59.61;101400.28;2211407;39;115572;-57
2021/07/11 06:06:32;;;;;;;;;;;;;;;21.07;59.56;101406.25;2212969;39;115640;-56
2021/07/11 06:08:04;;;;;;;;;;;;;;;21.06;59.63;101396.97;2210892;39;114168;-56
2021/07/11 06:09:36;;;;;;;;;;;;;;;21.07;59.70;101406.25;2210777;39;113740;-56
2021/07/11 06:11:08;;;;;;;;;;;;;;;21.07;60.04;101400.63;2204905;39;113810;-56
2021/07/11 06:12:40;;;;;;;;;;;;;;;21.08;59.67;101399.47;2206121;39;113989;-56
2021/07/11 06:14:14;;;;;;;;;;;;;;;21.09;59.84;101401.13;2210177;39;114024;-56
2021/07/11 06:15:45;;;;;;;;;;;;;;;21.10;59.70;101400.00;2211617;39;113709;-56
2021/07/11 06:17:17;;;;;;;;;;;;;;;21.07;60.04;101404.28;2209498;39;113640;-56
2021/07/11 06:18:49;;;;;;;;;;;;;;;21.06;59.72;101401.75;2211175;39;114270;-56
2021/07/11 06:20:22;;;;;;;;;;;;;;;21.06;59.58;101399.78;2211391;39;113923;-56
2021/07/11 06:21:54;;;;;;;;;;;;;;;21.08;59.81;101405.06;2211335;39;113963;-56
2021/07/11 06:23:30;;;;;;;;;;;;;;;21.10;60.13;101405.63;2209798;39;113912;-56
2021/07/11 06:25:06;;;;;;;;;;;;;;;21.10;60.17;101408.44;2207100;39;114580;-56
2021/07/11 06:26:38;;;;;;;;;;;;;;;21.09;60.11;101410.41;2210411;39;113964;-56
2021/07/11 06:28:09;;;;;;;;;;;;;;;21.09;60.07;101404.78;2214246;39;114559;-56
2021/07/11 06:29:41;;;;;;;;;;;;;;;21.10;60.15;101408.44;2210451;39;114558;-56
2021/07/11 06:31:13;;;;;;;;;;;;;;;21.10;60.78;101414.91;2210633;39;114723;-56
2021/07/11 06:32:46;;;;;;;;;;;;;;;21.10;60.66;101412.09;2210709;39;114897;-56
2021/07/11 06:34:18;;;;;;;;;;;;;;;21.13;60.87;101410.66;2215113;39;115202;-56
2021/07/11 06:35:50;;;;;;;;;;;;;;;21.14;61.37;101410.38;2213564;39;114729;-57
2021/07/11 06:37:22;;;;;;;;;;;;;;;21.17;61.19;101421.00;2209899;39;114684;-57
2021/07/11 06:38:54;;;;;;;;;;;;;;;21.19;61.05;101413.13;2211275;39;114792;-57
2021/07/11 06:40:26;;;;;;;;;;;;;;;21.23;61.24;101416.16;2211584;39;114968;-56
2021/07/11 06:41:58;;;;;;;;;;;;;;;21.25;61.39;101408.28;2212805;39;115260;-56
2021/07/11 06:43:30;;;;;;;;;;;;;;;21.27;61.35;101409.63;2210657;39;114890;-56
2021/07/11 06:45:02;;;;;;;;;;;;;;;21.30;61.79;101406.19;2210097;39;114782;-56
2021/07/11 06:46:34;;;;;;;;;;;;;;;21.34;61.65;101406.47;2210685;39;115003;-57
2021/07/11 06:48:07;;;;;;;;;;;;;;;21.38;61.65;101407.53;2207987;39;114927;-56
2021/07/11 06:49:39;;;;;;;;;;;;;;;21.41;61.88;101409.72;2209767;39;115227;-56
2021/07/11 06:51:11;;;;;;;;;;;;;;;21.46;62.01;101414.44;2210726;39;115967;-56
2021/07/11 06:52:44;;;;;;;;;;;;;;;21.49;62.09;101417.47;2205123;39;114512;-56
2021/07/11 06:54:15;;;;;;;;;;;;;;;21.52;61.74;101414.06;2210737;39;115764;-56
2021/07/11 06:55:47;;;;;;;;;;;;;;;21.55;61.99;101419.06;2208463;39;114794;-56
2021/07/11 06:57:19;;;;;;;;;;;;;;;21.60;62.05;101409.72;2210915;39;115575;-56
2021/07/11 06:58:51;;;;;;;;;;;;;;;21.64;61.91;101407.97;2210357;39;114516;-56
2021/07/11 07:00:22;;;;;;;;;;;;;;;21.67;61.64;101402.56;2214563;39;114581;-56
2021/07/11 07:01:54;;;;;;;;;;;;;;;21.71;61.66;101397.19;2212970;39;115615;-56
2021/07/11 07:03:26;;;;;;;;;;;;;;;21.74;61.56;101403.03;2210619;39;114542;-56
2021/07/11 07:04:57;;;;;;;;;;;;;;;21.79;61.34;101401.28;2210967;39;114617;-56
2021/07/11 07:06:29;;;;;;;;;;;;;;;21.82;61.35;101397.84;2211015;39;115566;-56
2021/07/11 07:08:01;;;;;;;;;;;;;;;21.86;61.21;101401.72;2210978;39;115477;-56
2021/07/11 07:09:33;;;;;;;;;;;;;;;21.89;61.20;101401.13;2204316;39;115969;-56
2021/07/11 07:11:04;;;;;;;;;;;;;;;21.92;61.20;101406.13;2207954;39;115743;-56
2021/07/11 07:12:37;;;;;;;;;;;;;;;21.95;60.88;101403.53;2212281;39;114291;-56
2021/07/11 07:14:08;;;;;;;;;;;;;;;21.99;60.68;101400.94;2210550;39;113736;-56
2021/07/11 07:15:40;;;;;;;;;;;;;;;22.01;60.76;101404.31;2211321;39;113860;-56
2021/07/11 07:17:12;;;;;;;;;;;;;;;22.04;60.52;101406.50;2211217;39;114053;-56
2021/07/11 07:18:44;;;;;;;;;;;;;;;22.05;60.44;101400.56;2210395;39;114095;-56
2021/07/11 07:20:15;;;;;;;;;;;;;;;22.09;60.10;101406.41;2210618;39;113849;-56
2021/07/11 07:21:47;;;;;;;;;;;;;;;22.12;60.08;101406.63;2210367;39;113790;-56
2021/07/11 07:23:19;;;;;;;;;;;;;;;22.14;60.02;101406.31;2207918;39;113734;-56
2021/07/11 07:24:50;;;;;;;;;;;;;;;22.16;59.73;101406.88;2208474;39;113659;-56
2021/07/11 07:26:23;;;;;;;;;;;;;;;22.18;59.77;101411.03;2212826;39;113613;-56
2021/07/11 07:27:55;;;;;;;;;;;;;;;22.22;59.41;101413.22;2210212;39;114133;-56
2021/07/11 07:29:27;;;;;;;;;;;;;;;22.24;59.43;101413.75;2213217;39;113897;-56
2021/07/11 07:30:59;;;;;;;;;;;;;;;22.26;59.19;101408.66;2209528;39;114059;-56
2021/07/11 07:32:30;;;;;;;;;;;;;;;22.28;59.20;101412.81;2210377;39;113965;-56
2021/07/11 07:34:04;;;;;;;;;;;;;;;22.30;59.13;101418.16;2218815;39;114051;-56
2021/07/11 07:35:36;;;;;;;;;;;;;;;22.31;58.80;101420.66;2210042;39;114592;-56
2021/07/11 07:37:08;;;;;;;;;;;;;;;22.33;58.87;101420.34;2210754;39;114672;-56
2021/07/11 07:38:39;;;;;;;;;;;;;;;22.35;58.89;101426.53;2210745;39;115065;-56
2021/07/11 07:40:11;;;;;;;;;;;;;;;22.36;58.49;101416.91;2211084;39;113916;-56
2021/07/11 07:41:43;;;;;;;;;;;;;;;22.39;58.70;101416.31;2210901;39;114825;-56
2021/07/11 07:43:15;;;;;;;;;;;;;;;22.40;58.58;101417.94;2209942;39;114983;-56
2021/07/11 07:44:47;;;;;;;;;;;;;;;22.41;58.50;101420.47;2209501;39;113893;-55
2021/07/11 07:46:19;;;;;;;;;;;;;;;22.42;58.42;101424.97;2207673;39;115199;-56
2021/07/11 07:47:51;;;;;;;;;;;;;;;22.42;58.25;101419.34;2208210;39;114779;-56
2021/07/11 07:49:23;;;;;;;;;;;;;;;22.45;57.96;101426.31;2208362;39;114948;-56
2021/07/11 07:50:55;;;;;;;;;;;;;;;22.46;57.88;101419.53;2202239;39;114735;-56